Latest Weather Observations for Narrabri

IDN60801

Issued at 2:33 pm EST Saturday 27 August 2016 (issued every 30 minutes, with the page automatically refreshed every 10 minutes)

About weather observations | Map of weather stations | Latest weather observations for NSW | Other Formats
Station Details ID: 054038 Name: NARRABRI AIRPORT AWS Lat: -30.32 Lon: 149.83 Height: 229.02 m
Data from the previous 72 hours. | See also: Recent months at Narrabri
Date/Time
EST
Temp
°C
App
Temp
°C
Dew
Point
°C
Rel
Hum
%
Delta-T
°C
Wind Press
QNH
hPa
Press
MSL
hPa
Rain since
9am
mm
Dir  Spd
km/h
Gust
km/h
Spd
kts
Gust
kts
27/02:30pm 16.7 12.3 4.7 45 5.7 SSE 17 28 9 15 1021.6 1021.6 0.0
27/02:00pm 16.4 11.9 4.4 45 5.7 SSE 17 26 9 14 1021.8 1021.8 0.0
27/01:30pm 15.8 11.0 4.5 47 5.4 SSE 19 26 10 14 1022.0 1022.0 0.0
27/01:00pm 15.8 10.8 4.8 48 5.2 SE 20 30 11 16 1022.4 1022.4 0.0
27/12:30pm 15.1 10.2 5.0 51 4.8 SSE 20 30 11 16 1022.9 1022.9 0.0
27/12:00pm 14.8 10.3 6.1 56 4.2 S 19 28 10 15 1023.2 1023.2 0.0
27/11:30am 14.0 8.6 4.6 53 4.4 SSE 22 32 12 17 1023.5 1023.6 0.0
27/11:00am 13.4 8.2 3.8 52 4.4 SSE 20 26 11 14 1023.5 1023.6 0.0
27/10:30am 12.6 7.6 3.8 55 4.0 SSE 19 26 10 14 1023.8 1023.9 0.0
27/10:00am 11.4 7.5 5.3 66 2.8 S 15 20 8 11 1024.0 1024.1 0.0
27/09:30am 10.2 6.5 4.6 68 2.5 SSE 13 17 7 9 1024.0 1024.1 0.0
27/09:00am 8.8 5.5 4.4 74 2.0 S 11 15 6 8 1024.0 1024.1 0.2
27/08:30am 7.5 3.5 3.0 73 1.9 S 13 17 7 9 1023.8 1023.9 0.2
27/08:00am 6.5 3.4 3.5 81 1.3 SSE 9 15 5 8 1023.3 1023.3 0.2
27/07:30am 4.4 1.5 2.6 88 0.7 SSE 7 9 4 5 1023.2 1023.2 0.2
27/07:00am 2.6 0.4 1.1 90 0.6 SE 2 7 1 4 1022.8 1022.8 0.2
27/06:30am 1.4 -0.6 -0.2 89 0.6 CALM 0 0 0 0 1022.8 1022.8 0.2
27/06:00am 2.0 -2.0 0.5 90 0.6 SSE 11 13 6 7 1022.4 1022.4 0.2
27/05:30am 1.3 -1.5 -0.3 89 0.6 SW 4 9 2 5 1021.9 1021.9 0.2
27/05:00am 1.5 -1.3 -0.1 89 0.6 SW 4 9 2 5 1021.4 1021.4 0.2
27/04:30am 1.7 -0.6 0.1 89 0.6 SSE 2 7 1 4 1021.0 1021.0 0.2
27/04:00am 1.4 -1.4 -0.4 88 0.7 ESE 4 7 2 4 1021.0 1021.0 0.2
27/03:30am 2.0 0.0 0.2 88 0.7 CALM 0 0 0 0 1021.0 1021.0 0.2
27/03:00am 2.3 -0.9 0.5 88 0.7 SSE 7 9 4 5 1021.1 1021.1 0.2
27/02:30am 2.9 0.3 0.8 86 0.8 S 4 13 2 7 1021.3 1021.3 0.2
27/02:00am 2.7 -1.6 0.8 87 0.7 ENE 13 15 7 8 1021.2 1021.2 0.2
27/01:30am 3.1 -1.6 0.8 85 0.9 E 15 17 8 9 1021.1 1021.1 0.2
27/01:00am 3.5 -1.2 1.2 85 0.9 E 15 19 8 10 1021.4 1021.4 0.2
27/12:30am 3.6 0.1 1.3 85 0.9 ESE 9 11 5 6 1021.6 1021.6 0.2
27/12:00am 3.6 -0.7 1.3 85 0.9 ENE 13 17 7 9 1021.7 1021.7 0.2
 
Date/Time
EST
Temp
°C
App
Temp
°C
Dew
Point
°C
Rel
Hum
%
Delta-T
°C
Wind Press
QNH
hPa
Press
MSL
hPa
Rain since
9am
mm
Dir  Spd
km/h
Gust
km/h
Spd
kts
Gust
kts
26/11:30pm 3.9 1.7 0.9 81 1.2 S 2 7 1 4 1021.7 1021.7 0.2
26/11:00pm 5.8 2.9 1.2 72 1.8 SSW 6 9 3 5 1021.7 1021.7 0.2
26/10:30pm 6.2 2.7 1.3 71 2.0 S 9 11 5 6 1021.6 1021.6 0.2
26/10:00pm 6.1 3.2 1.6 73 1.8 SSW 6 7 3 4 1021.6 1021.6 0.2
26/09:30pm 6.7 3.3 1.8 71 2.0 SSW 9 11 5 6 1021.5 1021.5 0.2
26/09:00pm 6.6 3.9 2.7 76 1.6 SSW 6 7 3 4 1021.2 1021.2 0.2
26/08:30pm 6.9 4.3 3.0 76 1.7 SSW 6 9 3 5 1021.1 1021.1 0.2
26/08:00pm 6.8 4.1 2.7 75 1.7 ENE 6 9 3 5 1020.6 1020.7 0.2
26/07:30pm 7.8 6.2 2.7 70 2.2 CALM 0 0 0 0 1020.3 1020.4 0.2
26/07:00pm 7.6 4.9 2.5 70 2.1 S 6 11 3 6 1020.1 1020.2 0.2
26/06:30pm 9.7 6.6 1.4 56 3.5 SE 7 9 4 5 1019.7 1019.8 0.2
26/06:00pm 10.1 6.6 1.5 55 3.6 SSE 9 11 5 6 1019.3 1019.3 0.2
26/05:30pm 11.9 8.4 1.3 48 4.5 SE 9 13 5 7 1018.8 1018.8 0.2
26/05:00pm 12.7 9.1 0.5 43 5.1 SE 9 13 5 7 1018.5 1018.5 0.2
26/04:30pm 13.3 10.4 1.3 44 5.2 SE 6 9 3 5 1018.2 1018.2 0.2
26/04:00pm 14.0 10.3 -0.1 38 5.9 ESE 9 15 5 8 1017.9 1017.9 0.2
26/03:30pm 14.1 10.5 0.7 40 5.8 SSE 9 15 5 8 1017.6 1017.6 0.2
26/03:00pm 13.9 10.2 0.2 39 5.8 SW 9 15 5 8 1017.5 1017.5 0.2
26/02:30pm 14.7 11.6 1.3 40 5.9 SW 7 17 4 9 1017.5 1017.5 0.2
26/02:00pm 14.9 12.5 2.1 42 5.7 N 4 9 2 5 1017.7 1017.7 0.2
26/01:30pm 13.5 10.5 0.9 42 5.4 W 6 9 3 5 1018.2 1018.2 0.2
26/01:00pm 13.3 10.4 2.5 48 4.8 S 7 13 4 7 1018.5 1018.5 0.2
26/12:30pm 13.1 9.1 2.6 49 4.7 W 13 19 7 10 1018.8 1018.8 0.2
26/12:00pm 13.7 10.8 2.6 47 5.0 SW 7 11 4 6 1019.4 1019.4 0.2
26/11:30am 12.0 9.1 2.7 53 4.1 SSW 7 15 4 8 1019.9 1020.0 0.2
26/11:00am 12.0 8.3 2.2 51 4.3 SE 11 17 6 9 1020.2 1020.3 0.2
26/10:30am 11.9 8.6 2.6 53 4.1 SE 9 17 5 9 1020.3 1020.4 0.0
26/10:00am 10.6 7.6 4.1 64 2.9 SSW 9 15 5 8 1020.5 1020.6 0.0
26/09:30am 9.6 7.0 4.2 69 2.4 SSW 7 13 4 7 1020.5 1020.6 0.0
26/09:00am 8.6 5.2 4.2 74 1.9 S 11 17 6 9 1020.5 1020.6 0.0
26/08:30am 7.1 4.7 4.4 83 1.2 SW 6 7 3 4 1020.7 1020.8 0.0
26/08:00am 5.1 3.6 3.1 87 0.8 CALM 0 0 0 0 1020.4 1020.5 0.0
26/07:30am 3.8 2.2 2.3 90 0.6 CALM 0 0 0 0 1020.3 1020.4 0.0
26/07:00am 2.2 -0.1 0.7 90 0.6 SE 2 7 1 4 1020.0 1020.1 0.0
26/06:30am 1.0 -1.1 -0.6 89 0.6 CALM 0 0 0 0 1019.6 1019.6 0.0
26/06:00am 1.5 -0.5 -0.1 89 0.6 CALM 0 0 0 0 1019.3 1019.3 0.0
26/05:30am 1.7 -0.3 0.1 89 0.6 CALM 0 6 0 3 1018.8 1018.8 0.0
26/05:00am 1.8 -0.2 0.2 89 0.6 CALM 0 6 0 3 1018.5 1018.5 0.0
26/04:30am 2.1 0.2 0.5 89 0.6 CALM 0 0 0 0 1018.4 1018.4 0.0
26/04:00am 1.5 -1.9 -0.3 88 0.7 ENE 7 11 4 6 1018.1 1018.1 0.0
26/03:30am 2.2 0.3 0.4 88 0.7 CALM 0 0 0 0 1018.0 1018.0 0.0
26/03:00am 2.7 -0.3 0.8 87 0.7 S 6 6 3 3 1017.9 1017.9 0.0
26/02:30am 2.6 -0.4 0.7 87 0.7 E 6 9 3 5 1018.1 1018.1 0.0
26/02:00am 2.4 -0.3 0.1 85 0.9 ESE 4 11 2 6 1018.1 1018.1 0.0
26/01:30am 3.7 0.8 1.4 85 0.9 SSE 6 9 3 5 1018.1 1018.1 0.0
26/01:00am 3.7 0.6 1.4 85 0.9 E 7 9 4 5 1018.2 1018.2 0.0
26/12:30am 4.3 1.5 2.0 85 0.9 S 6 9 3 5 1018.3 1018.3 0.0
26/12:00am 4.7 1.8 2.4 85 0.9 S 7 9 4 5 1018.2 1018.2 0.0
 
Date/Time
EST
Temp
°C
App
Temp
°C
Dew
Point
°C
Rel
Hum
%
Delta-T
°C
Wind Press
QNH
hPa
Press
MSL
hPa
Rain since
9am
mm
Dir  Spd
km/h
Gust
km/h
Spd
kts
Gust
kts
25/11:30pm 4.7 3.1 2.6 86 0.9 CALM 0 0 0 0 1018.2 1018.2 0.0
25/11:00pm 4.0 2.2 1.4 83 1.0 CALM 0 4 0 2 1018.2 1018.2 0.0
25/10:30pm 5.8 3.2 3.0 82 1.2 S 6 7 3 4 1018.1 1018.1 0.0
25/10:00pm 6.0 4.2 3.2 82 1.2 WSW 2 6 1 3 1017.9 1017.9 0.0
25/09:30pm 6.7 5.3 3.5 80 1.4 CALM 0 0 0 0 1017.9 1017.9 0.0
25/09:00pm 6.6 5.2 3.6 81 1.3 CALM 0 0 0 0 1017.7 1017.7 0.0
25/08:30pm 6.7 5.4 3.9 82 1.2 CALM 0 0 0 0 1017.5 1017.5 0.0
25/08:00pm 7.8 5.0 3.3 73 1.9 S 7 7 4 4 1017.2 1017.2 0.0
25/07:30pm 9.3 5.8 3.5 67 2.5 SW 11 13 6 7 1017.1 1017.1 0.0
25/07:00pm 9.1 4.8 3.5 68 2.4 SW 15 17 8 9 1016.8 1016.8 0.0
25/06:30pm 10.0 5.3 3.3 63 2.9 SW 17 19 9 10 1016.1 1016.2 0.0
25/06:00pm 10.8 6.2 3.6 61 3.2 SW 17 20 9 11 1015.5 1015.5 0.0
25/05:30pm 12.4 7.8 3.6 55 4.0 WSW 17 24 9 13 1015.0 1015.0 0.0
25/05:00pm 14.0 9.4 3.8 50 4.7 W 17 22 9 12 1014.5 1014.5 0.0
25/04:30pm 14.1 9.3 4.4 52 4.5 WSW 19 26 10 14 1014.3 1014.3 0.0
25/04:00pm 14.0 9.6 4.6 53 4.4 W 17 22 9 12 1014.0 1014.0 0.0
25/03:30pm 15.0 10.3 5.2 52 4.7 W 19 26 10 14 1013.9 1013.9 0.0
25/03:00pm 14.8 10.2 5.6 54 4.4 W 19 28 10 15 1013.9 1013.9 0.0
25/02:30pm 14.0 9.2 5.4 56 4.1 WSW 20 33 11 18 1013.9 1013.9 0.0
25/02:00pm 13.7 9.6 6.3 61 3.6 W 17 24 9 13 1014.0 1014.0 0.0
25/01:30pm 13.0 8.9 6.4 64 3.2 WNW 17 20 9 11 1014.1 1014.1 0.0
25/01:00pm 12.5 7.9 6.5 67 2.9 WNW 20 24 11 13 1014.2 1014.2 0.0
25/12:30pm 12.3 7.9 6.4 67 2.8 W 19 22 10 12 1014.4 1014.4 0.0
25/12:00pm 12.1 7.7 6.4 68 2.7 W 19 24 10 13 1014.5 1014.5 0.0
25/11:30am 11.6 7.6 6.5 71 2.4 WSW 17 24 9 13 1014.6 1014.6 0.0
25/11:00am 10.9 6.8 6.1 72 2.3 WSW 17 24 9 13 1014.7 1014.7 0.0
25/10:30am 11.1 7.1 6.8 75 2.1 WSW 17 22 9 12 1014.8 1014.8 0.0
25/10:15am 10.8 7.1 6.4 74 2.1 WSW 15 22 8 12 1014.8 1014.8 0.0
25/10:00am 10.6 7.4 6.7 77 1.9 W 13 19 7 10 1014.7 1014.7 0.0
25/09:36am 10.2 6.6 6.7 79 1.7 W 15 19 8 10 1014.6 1014.6 0.0
25/09:30am 10.0 6.3 6.3 78 1.7 W 15 19 8 10 1014.5 1014.5 0.0
25/09:29am 10.0 6.3 6.3 78 1.7 W 15 19 8 10 1014.5 1014.5 0.0
25/09:00am 9.6 6.4 6.7 82 1.4 W 13 17 7 9 1014.4 1014.4 14.0
25/08:30am 8.9 4.5 6.7 86 1.0 W 19 22 10 12 1014.2 1014.2 14.0
25/08:00am 8.7 5.5 6.8 88 0.9 W 13 17 7 9 1013.9 1013.9 14.0
25/07:30am 8.4 5.1 6.5 88 0.9 W 13 17 7 9 1013.6 1013.6 14.0
25/07:00am 8.2 4.9 6.5 89 0.8 WNW 13 19 7 10 1013.3 1013.3 14.0
25/06:50am 8.2 4.5 6.5 89 0.8 WNW 15 19 8 10 1013.2 1013.2 14.0
25/06:30am 8.2 4.9 6.5 89 0.8 WNW 13 20 7 11 1012.9 1012.9 14.0
25/06:12am 8.3 4.3 6.6 89 0.8 WNW 17 20 9 11 1012.5 1012.5 14.0
25/06:00am 8.3 4.3 6.6 89 0.8 WNW 17 20 9 11 1012.4 1012.4 14.0
25/05:30am 8.5 4.9 6.8 89 0.8 WNW 15 20 8 11 1012.1 1012.0 14.0
25/05:25am 8.5 4.9 6.8 89 0.8 WNW 15 20 8 11 1012.0 1011.9 14.0
25/05:00am 8.5 4.5 6.8 89 0.8 NW 17 22 9 12 1011.5 1011.5 14.0
25/04:30am 8.7 4.8 7.0 89 0.8 WNW 17 24 9 13 1011.3 1011.3 14.0
25/04:00am 8.8 4.9 7.1 89 0.8 NW 17 22 9 12 1010.9 1010.9 14.0
25/03:35am 8.9 5.4 7.2 89 0.8 WNW 15 20 8 11 1010.9 1010.9 14.0
25/03:30am 8.9 5.8 7.2 89 0.8 WNW 13 19 7 10 1010.9 1010.9 14.0
25/03:00am 9.0 5.9 7.1 88 0.9 NW 13 17 7 9 1010.7 1010.7 14.0
25/02:36am 9.3 6.2 7.3 87 1.0 NW 13 17 7 9 1010.8 1010.8 14.0
25/02:30am 9.3 6.2 7.3 87 1.0 NW 13 17 7 9 1010.8 1010.8 14.0
25/02:00am 9.2 6.3 6.6 84 1.2 WNW 11 13 6 7 1011.0 1011.0 14.0
25/01:30am 9.3 6.1 6.7 84 1.2 WNW 13 15 7 8 1011.2 1011.2 14.0
25/01:00am 9.6 5.2 6.5 81 1.5 W 19 24 10 13 1011.1 1011.1 14.0
25/12:30am 9.7 5.4 7.1 84 1.2 W 19 24 10 13 1011.0 1011.0 14.0
25/12:00am 9.9 6.1 7.5 85 1.2 W 17 19 9 10 1010.7 1010.7 14.0
 
Date/Time
EST
Temp
°C
App
Temp
°C
Dew
Point
°C
Rel
Hum
%
Delta-T
°C
Wind Press
QNH
hPa
Press
MSL
hPa
Rain since
9am
mm
Dir  Spd
km/h
Gust
km/h
Spd
kts
Gust
kts
24/11:30pm 10.2 6.1 7.8 85 1.2 W 19 24 10 13 1010.7 1010.7 14.0
24/11:24pm 10.2 6.5 7.8 85 1.2 W 17 24 9 13 1010.6 1010.6 14.0
24/11:00pm 10.4 6.3 8.0 85 1.2 W 19 26 10 14 1010.5 1010.5 14.0
24/10:30pm 10.4 6.1 8.0 85 1.2 WSW 20 28 11 15 1010.4 1010.4 14.0
24/10:00pm 10.4 5.8 8.3 87 1.0 WSW 22 33 12 18 1010.0 1010.0 14.0
24/09:30pm 10.6 6.2 8.9 89 0.9 W 22 30 12 16 1009.5 1009.5 14.0
24/09:00pm 10.8 10.6 9.2 90 0.8 CALM 0 0 0 0 1009.1 1009.1 14.0
24/08:30pm 10.9 9.6 9.3 90 0.8 W 6 11 3 6 1008.8 1008.8 14.0
24/08:08pm 11.2 7.3 9.6 90 0.8 WSW 20 32 11 17 1009.3 1009.3 13.8
24/08:00pm 11.3 7.5 9.7 90 0.8 SW 20 32 11 17 1009.2 1009.2 13.8
24/07:34pm 11.8 7.7 10.2 90 0.8 SW 22 32 12 17 1009.1 1009.1 12.2
24/07:30pm 11.8 7.7 10.2 90 0.8 SW 22 32 12 17 1008.9 1008.9 12.0
24/07:19pm 11.9 7.5 10.3 90 0.8 WSW 24 32 13 17 1008.7 1008.7 11.8
24/07:00pm 12.7 9.3 11.1 90 0.9 WSW 20 30 11 16 1008.2 1008.1 11.8
24/06:56pm 12.9 10.1 11.5 91 0.8 W 17 28 9 15 1008.3 1008.2 11.6
24/06:38pm 13.1 11.2 11.7 91 0.8 WNW 13 19 7 10 1008.1 1008.0 10.8
24/06:30pm 13.1 11.5 11.7 91 0.8 NW 11 19 6 10 1008.1 1008.0 10.4
24/06:14pm 13.0 11.4 11.6 91 0.8 WNW 11 15 6 8 1007.7 1007.6 10.4
24/06:00pm 13.0 12.7 11.6 91 0.8 WSW 4 9 2 5 1007.2 1007.1 10.2
24/05:30pm 13.1 11.5 11.7 91 0.8 W 11 15 6 8 1007.3 1007.2 9.6
24/05:17pm 13.2 12.1 11.8 91 0.8 W 9 13 5 7 1007.0 1007.0 9.2
24/05:00pm 13.3 12.2 11.9 91 0.8 WSW 9 13 5 7 1007.2 1007.1 8.4
24/04:53pm 13.2 11.7 11.8 91 0.8 WSW 11 17 6 9 1007.2 1007.1 8.2
24/04:45pm 13.3 11.8 11.9 91 0.8 SW 11 13 6 7 1006.9 1006.9 7.8
24/04:30pm 13.3 11.8 11.9 91 0.8 WSW 11 15 6 8 1006.7 1006.7 6.4
24/04:18pm 13.4 11.6 12.0 91 0.8 WSW 13 17 7 9 1006.8 1006.8 4.8
24/04:14pm 13.4 11.5 11.8 90 0.9 WSW 13 17 7 9 1006.8 1006.8 4.6
24/04:12pm 13.4 11.5 11.8 90 0.9 WSW 13 17 7 9 1006.7 1006.7 4.4
24/04:00pm 13.5 12.0 11.9 90 0.9 SW 11 13 6 7 1006.4 1006.4 4.2
24/03:57pm 13.5 12.0 11.9 90 0.9 SW 11 13 6 7 1006.4 1006.4 4.2
24/03:49pm 13.5 12.0 11.9 90 0.9 WSW 11 15 6 8 1006.4 1006.4 3.6
24/03:30pm 13.5 11.6 11.9 90 0.9 SW 13 17 7 9 1006.5 1006.5 3.0
24/03:24pm 13.6 11.8 12.0 90 0.9 SW 13 17 7 9 1006.5 1006.5 3.0
24/03:00pm 13.6 11.8 12.0 90 0.9 WSW 13 19 7 10 1006.9 1006.9 2.6
24/02:41pm 13.7 12.2 11.9 89 1.0 W 11 13 6 7 1007.0 1007.0 2.0

Other Formats:

Comma delimited format used in spreadsheet applications
http://www.bom.gov.au/fwo/IDN60801/IDN60801.95734.axf

JavaScript Object Notation format (JSON) in row-major order
http://www.bom.gov.au/fwo/IDN60801/IDN60801.95734.json